PWSweather.com
Personal Weather Stations
Station Observations
SPARKSRC
St. Petersburg, FL 33716

St. Petersburg, FL 33716

Lat: 27.876101, Lon: -82.657194

Elevation: 13

Station Type: Zephyr PWS-1000TD

High Low Average
Temperature 99.0°F37.2°C 77.5°F25.3°C 84.9°F29.4°C
Dew Point 86.2°F30.1°C 77.1°F25.1°C 80.6°F27.0°C
Winds 13.6 mph 21.9 kmh Calm Calm 4.0 mph SE6.4 kmh SE
Wind Gusts 22.8 mph36.7 kmh 2.2 mph3.5 kmh 8.0 mph12.9 kmh
Humidity 99% 61% 88%
Pressure 30.03 in1016.9 mb 29.95 in1014.2 mb -
Precipitation 0.41 in10.4 mm - -
Hour Temp Dew Point Humidity Winds Wind Gusts Pressure Precip Precip Rate Daily Precip Total
12:00 AM 82.2°F27.9°C 81.0°F27.2°C 96% 3.1 mph NNE5.0 kmh NNE 6.0 mph9.7 kmh 30.01 in1016.3 mb 0.00 in0.0 mm 0.00 in/hr0.0 mm/hr 0.00 in0.0 mm
12:05 AM 82.2°F27.9°C 81.0°F27.2°C 96% 3.1 mph NE5.0 kmh NE 6.0 mph9.7 kmh 30.01 in1016.3 mb 0.00 in0.0 mm 0.00 in/hr0.0 mm/hr 0.00 in0.0 mm
12:10 AM 82.2°F27.9°C 81.0°F27.2°C 96% 3.1 mph NE5.0 kmh NE 7.6 mph12.2 kmh 30.01 in1016.3 mb 0.00 in0.0 mm 0.00 in/hr0.0 mm/hr 0.00 in0.0 mm
12:15 AM 82.2°F27.9°C 80.7°F27.1°C 95% 3.1 mph NNE5.0 kmh NNE 7.6 mph12.2 kmh 30.01 in1016.3 mb 0.00 in0.0 mm 0.00 in/hr0.0 mm/hr 0.00 in0.0 mm
12:20 AM 82.2°F27.9°C 81.0°F27.2°C 96% 3.8 mph NNE6.1 kmh NNE 5.4 mph8.7 kmh 30.01 in1016.3 mb 0.00 in0.0 mm 0.00 in/hr0.0 mm/hr 0.00 in0.0 mm
12:25 AM 82.0°F27.8°C 80.9°F27.2°C 96% 4.5 mph NE7.2 kmh NE 6.0 mph9.7 kmh 30.01 in1016.3 mb 0.00 in0.0 mm 0.00 in/hr0.0 mm/hr 0.00 in0.0 mm
12:30 AM 82.2°F27.9°C 81.0°F27.2°C 96% 1.6 mph NE2.6 kmh NE 6.0 mph9.7 kmh 30.01 in1016.3 mb 0.00 in0.0 mm 0.00 in/hr0.0 mm/hr 0.00 in0.0 mm
12:35 AM 82.0°F27.8°C 80.9°F27.2°C 96% 3.1 mph NNE5.0 kmh NNE 6.0 mph9.7 kmh 30.01 in1016.3 mb 0.00 in0.0 mm 0.00 in/hr0.0 mm/hr 0.00 in0.0 mm
12:40 AM 82.0°F27.8°C 80.5°F26.9°C 95% 1.6 mph NNE2.6 kmh NNE 6.0 mph9.7 kmh 30.01 in1016.3 mb 0.00 in0.0 mm 0.00 in/hr0.0 mm/hr 0.00 in0.0 mm
12:45 AM 81.9°F27.7°C 80.4°F26.9°C 95% 3.8 mph N6.1 kmh N 6.0 mph9.7 kmh 30.02 in1016.6 mb 0.00 in0.0 mm 0.00 in/hr0.0 mm/hr 0.00 in0.0 mm
12:50 AM 82.0°F27.8°C 80.5°F26.9°C 95% 1.6 mph NNE2.6 kmh NNE 5.4 mph8.7 kmh 30.01 in1016.3 mb 0.00 in0.0 mm 0.00 in/hr0.0 mm/hr 0.00 in0.0 mm
12:55 AM 81.7°F27.6°C 80.2°F26.8°C 95% 2.2 mph NE3.5 kmh NE 5.4 mph8.7 kmh 30.01 in1016.3 mb 0.00 in0.0 mm 0.00 in/hr0.0 mm/hr 0.00 in0.0 mm
01:00 AM 81.7°F27.6°C 80.2°F26.8°C 95% 1.6 mph NE2.6 kmh NE 3.8 mph6.1 kmh 30.01 in1016.3 mb 0.00 in0.0 mm 0.00 in/hr0.0 mm/hr 0.00 in0.0 mm
01:05 AM 81.7°F27.6°C 80.2°F26.8°C 95% 1.6 mph N2.6 kmh N 3.8 mph6.1 kmh 30.01 in1016.3 mb 0.00 in0.0 mm 0.00 in/hr0.0 mm/hr 0.00 in0.0 mm
01:10 AM 81.5°F27.5°C 80.0°F26.7°C 95% 2.2 mph N3.5 kmh N 3.8 mph6.1 kmh 30.01 in1016.3 mb 0.00 in0.0 mm 0.00 in/hr0.0 mm/hr 0.00 in0.0 mm
01:15 AM 81.3°F27.4°C 79.8°F26.6°C 95% 2.2 mph NE3.5 kmh NE 3.8 mph6.1 kmh 30.00 in1015.9 mb 0.00 in0.0 mm 0.00 in/hr0.0 mm/hr 0.00 in0.0 mm
01:20 AM 81.3°F27.4°C 79.8°F26.6°C 95% 1.6 mph NE2.6 kmh NE 3.8 mph6.1 kmh 30.01 in1016.3 mb 0.00 in0.0 mm 0.00 in/hr0.0 mm/hr 0.00 in0.0 mm
01:25 AM 81.3°F27.4°C 79.8°F26.6°C 95% 1.6 mph ENE2.6 kmh ENE 3.8 mph6.1 kmh 30.00 in1015.9 mb 0.00 in0.0 mm 0.00 in/hr0.0 mm/hr 0.00 in0.0 mm
01:30 AM 81.3°F27.4°C 79.8°F26.6°C 95% 2.2 mph E3.5 kmh E 3.8 mph6.1 kmh 30.00 in1015.9 mb 0.00 in0.0 mm 0.00 in/hr0.0 mm/hr 0.00 in0.0 mm
01:35 AM 81.1°F27.3°C 80.0°F26.7°C 96% 3.1 mph E5.0 kmh E 3.8 mph6.1 kmh 29.99 in1015.6 mb 0.00 in0.0 mm 0.00 in/hr0.0 mm/hr 0.00 in0.0 mm
01:40 AM 81.3°F27.4°C 80.1°F26.7°C 96% 0.7 mph E1.1 kmh E 3.8 mph6.1 kmh 30.00 in1015.9 mb 0.00 in0.0 mm 0.00 in/hr0.0 mm/hr 0.00 in0.0 mm
01:45 AM 81.3°F27.4°C 80.1°F26.7°C 96% 2.2 mph E3.5 kmh E 3.8 mph6.1 kmh 29.99 in1015.6 mb 0.00 in0.0 mm 0.00 in/hr0.0 mm/hr 0.00 in0.0 mm
01:50 AM 81.0°F27.2°C 80.1°F26.7°C 97% 2.2 mph ENE3.5 kmh ENE 3.8 mph6.1 kmh 29.99 in1015.6 mb 0.00 in0.0 mm 0.00 in/hr0.0 mm/hr 0.00 in0.0 mm
01:55 AM 81.1°F27.3°C 80.3°F26.8°C 97% 2.2 mph NE3.5 kmh NE 3.8 mph6.1 kmh 29.99 in1015.6 mb 0.00 in0.0 mm 0.00 in/hr0.0 mm/hr 0.00 in0.0 mm
02:00 AM 81.1°F27.3°C 80.3°F26.8°C 97% 0.7 mph NE1.1 kmh NE 3.8 mph6.1 kmh 29.99 in1015.6 mb 0.00 in0.0 mm 0.00 in/hr0.0 mm/hr 0.00 in0.0 mm
02:05 AM 81.1°F27.3°C 80.3°F26.8°C 97% 0.7 mph NE1.1 kmh NE 3.8 mph6.1 kmh 29.99 in1015.6 mb 0.00 in0.0 mm 0.00 in/hr0.0 mm/hr 0.00 in0.0 mm
02:10 AM 81.0°F27.2°C 80.1°F26.7°C 97% 1.6 mph ENE2.6 kmh ENE 3.8 mph6.1 kmh 29.99 in1015.6 mb 0.00 in0.0 mm 0.00 in/hr0.0 mm/hr 0.00 in0.0 mm
02:15 AM 80.8°F27.1°C 79.9°F26.6°C 97% 0.7 mph E1.1 kmh E 3.8 mph6.1 kmh 29.99 in1015.6 mb 0.00 in0.0 mm 0.00 in/hr0.0 mm/hr 0.00 in0.0 mm
02:20 AM 80.8°F27.1°C 79.9°F26.6°C 97% 1.6 mph E2.6 kmh E 3.1 mph5.0 kmh 29.99 in1015.6 mb 0.00 in0.0 mm 0.00 in/hr0.0 mm/hr 0.00 in0.0 mm
02:25 AM 80.6°F27.0°C 80.1°F26.7°C 98% 2.2 mph E3.5 kmh E 3.8 mph6.1 kmh 29.98 in1015.2 mb 0.00 in0.0 mm 0.00 in/hr0.0 mm/hr 0.00 in0.0 mm
02:30 AM 80.6°F27.0°C 80.4°F26.9°C 99% 1.6 mph ESE2.6 kmh ESE 3.8 mph6.1 kmh 29.98 in1015.2 mb 0.00 in0.0 mm 0.00 in/hr0.0 mm/hr 0.00 in0.0 mm
02:35 AM 80.6°F27.0°C 80.4°F26.9°C 99% 1.6 mph SE2.6 kmh SE 3.8 mph6.1 kmh 29.98 in1015.2 mb 0.00 in0.0 mm 0.00 in/hr0.0 mm/hr 0.00 in0.0 mm
02:40 AM 80.8°F27.1°C 80.5°F26.9°C 99% 2.2 mph SE3.5 kmh SE 4.5 mph7.2 kmh 29.98 in1015.2 mb 0.00 in0.0 mm 0.00 in/hr0.0 mm/hr 0.00 in0.0 mm
02:45 AM 81.0°F27.2°C 80.7°F27.1°C 99% 3.8 mph SE6.1 kmh SE 5.4 mph8.7 kmh 29.98 in1015.2 mb 0.00 in0.0 mm 0.00 in/hr0.0 mm/hr 0.00 in0.0 mm
02:50 AM 81.0°F27.2°C 80.7°F27.1°C 99% 3.8 mph ESE6.1 kmh ESE 6.9 mph11.1 kmh 29.98 in1015.2 mb 0.00 in0.0 mm 0.00 in/hr0.0 mm/hr 0.00 in0.0 mm
02:55 AM 81.0°F27.2°C 80.7°F27.1°C 99% 3.8 mph E6.1 kmh E 6.9 mph11.1 kmh 29.97 in1014.9 mb 0.00 in0.0 mm 0.00 in/hr0.0 mm/hr 0.00 in0.0 mm
03:00 AM 81.0°F27.2°C 80.7°F27.1°C 99% 3.8 mph ESE6.1 kmh ESE 6.0 mph9.7 kmh 29.98 in1015.2 mb 0.00 in0.0 mm 0.00 in/hr0.0 mm/hr 0.00 in0.0 mm
03:05 AM 81.0°F27.2°C 80.7°F27.1°C 99% 3.1 mph SE5.0 kmh SE 6.9 mph11.1 kmh 29.97 in1014.9 mb 0.00 in0.0 mm 0.00 in/hr0.0 mm/hr 0.00 in0.0 mm
03:10 AM 81.0°F27.2°C 80.7°F27.1°C 99% 3.1 mph SE5.0 kmh SE 6.9 mph11.1 kmh 29.97 in1014.9 mb 0.00 in0.0 mm 0.00 in/hr0.0 mm/hr 0.00 in0.0 mm
03:15 AM 81.0°F27.2°C 80.7°F27.1°C 99% 3.1 mph SE5.0 kmh SE 7.6 mph12.2 kmh 29.97 in1014.9 mb 0.00 in0.0 mm 0.00 in/hr0.0 mm/hr 0.00 in0.0 mm
03:20 AM 81.0°F27.2°C 80.7°F27.1°C 99% 3.1 mph SE5.0 kmh SE 7.6 mph12.2 kmh 29.97 in1014.9 mb 0.00 in0.0 mm 0.00 in/hr0.0 mm/hr 0.00 in0.0 mm
03:25 AM 80.8°F27.1°C 80.5°F26.9°C 99% 3.8 mph SE6.1 kmh SE 6.9 mph11.1 kmh 29.97 in1014.9 mb 0.00 in0.0 mm 0.00 in/hr0.0 mm/hr 0.00 in0.0 mm
03:30 AM 80.6°F27.0°C 80.4°F26.9°C 99% 6.9 mph SE11.1 kmh SE 10.7 mph17.2 kmh 29.96 in1014.6 mb 0.00 in0.0 mm 0.00 in/hr0.0 mm/hr 0.00 in0.0 mm
03:35 AM 80.4°F26.9°C 80.2°F26.8°C 99% 4.5 mph SE7.2 kmh SE 10.7 mph17.2 kmh 29.97 in1014.9 mb 0.00 in0.0 mm 0.00 in/hr0.0 mm/hr 0.00 in0.0 mm
03:40 AM 80.4°F26.9°C 80.2°F26.8°C 99% 2.2 mph SE3.5 kmh SE 10.7 mph17.2 kmh 29.96 in1014.6 mb 0.00 in0.0 mm 0.00 in/hr0.0 mm/hr 0.00 in0.0 mm
03:45 AM 80.2°F26.8°C 80.0°F26.7°C 99% 2.2 mph SE3.5 kmh SE 6.9 mph11.1 kmh 29.96 in1014.6 mb 0.00 in0.0 mm 0.00 in/hr0.0 mm/hr 0.00 in0.0 mm
03:50 AM 80.2°F26.8°C 80.0°F26.7°C 99% 3.1 mph SE5.0 kmh SE 6.9 mph11.1 kmh 29.96 in1014.6 mb 0.00 in0.0 mm 0.00 in/hr0.0 mm/hr 0.00 in0.0 mm
03:55 AM 80.1°F26.7°C 79.8°F26.6°C 99% 3.1 mph SE5.0 kmh SE 6.0 mph9.7 kmh 29.96 in1014.6 mb 0.00 in0.0 mm 0.00 in/hr0.0 mm/hr 0.00 in0.0 mm
04:00 AM 80.1°F26.7°C 79.8°F26.6°C 99% 2.2 mph SE3.5 kmh SE 4.5 mph7.2 kmh 29.96 in1014.6 mb 0.00 in0.0 mm 0.00 in/hr0.0 mm/hr 0.00 in0.0 mm
04:05 AM 80.1°F26.7°C 79.8°F26.6°C 99% 3.1 mph SE5.0 kmh SE 5.4 mph8.7 kmh 29.95 in1014.2 mb 0.00 in0.0 mm 0.00 in/hr0.0 mm/hr 0.00 in0.0 mm
04:10 AM 80.1°F26.7°C 79.8°F26.6°C 99% 3.1 mph SE5.0 kmh SE 5.4 mph8.7 kmh 29.95 in1014.2 mb 0.00 in0.0 mm 0.00 in/hr0.0 mm/hr 0.00 in0.0 mm
04:15 AM 80.1°F26.7°C 79.8°F26.6°C 99% 1.6 mph SE2.6 kmh SE 5.4 mph8.7 kmh 29.95 in1014.2 mb 0.00 in0.0 mm 0.00 in/hr0.0 mm/hr 0.00 in0.0 mm
04:20 AM 79.9°F26.6°C 79.6°F26.4°C 99% 1.6 mph SE2.6 kmh SE 4.5 mph7.2 kmh 29.95 in1014.2 mb 0.00 in0.0 mm 0.00 in/hr0.0 mm/hr 0.00 in0.0 mm
04:25 AM 79.9°F26.6°C 79.6°F26.4°C 99% 0.7 mph SE1.1 kmh SE 4.5 mph7.2 kmh 29.95 in1014.2 mb 0.00 in0.0 mm 0.00 in/hr0.0 mm/hr 0.00 in0.0 mm
04:30 AM 79.7°F26.5°C 79.5°F26.4°C 99% 0.7 mph SE1.1 kmh SE 3.1 mph5.0 kmh 29.96 in1014.6 mb 0.00 in0.0 mm 0.00 in/hr0.0 mm/hr 0.00 in0.0 mm
04:35 AM 79.7°F26.5°C 79.5°F26.4°C 99% 0.7 mph SE1.1 kmh SE 3.1 mph5.0 kmh 29.96 in1014.6 mb 0.00 in0.0 mm 0.00 in/hr0.0 mm/hr 0.00 in0.0 mm
04:40 AM 79.7°F26.5°C 79.5°F26.4°C 99% 2.2 mph SE3.5 kmh SE 4.5 mph7.2 kmh 29.95 in1014.2 mb 0.00 in0.0 mm 0.00 in/hr0.0 mm/hr 0.00 in0.0 mm
04:45 AM 79.7°F26.5°C 79.5°F26.4°C 99% 2.2 mph SE3.5 kmh SE 5.4 mph8.7 kmh 29.95 in1014.2 mb 0.00 in0.0 mm 0.00 in/hr0.0 mm/hr 0.00 in0.0 mm
04:50 AM 79.7°F26.5°C 79.5°F26.4°C 99% 1.6 mph ESE2.6 kmh ESE 5.4 mph8.7 kmh 29.95 in1014.2 mb 0.00 in0.0 mm 0.00 in/hr0.0 mm/hr 0.00 in0.0 mm
04:55 AM 79.7°F26.5°C 79.5°F26.4°C 99% 0.7 mph SE1.1 kmh SE 4.5 mph7.2 kmh 29.95 in1014.2 mb 0.00 in0.0 mm 0.00 in/hr0.0 mm/hr 0.00 in0.0 mm
05:00 AM 79.7°F26.5°C 79.5°F26.4°C 99% Calm Calm 3.8 mph6.1 kmh 29.96 in1014.6 mb 0.00 in0.0 mm 0.00 in/hr0.0 mm/hr 0.00 in0.0 mm
05:05 AM 79.5°F26.4°C 79.3°F26.3°C 99% Calm Calm 2.2 mph3.5 kmh 29.96 in1014.6 mb 0.00 in0.0 mm 0.00 in/hr0.0 mm/hr 0.00 in0.0 mm
05:10 AM 79.3°F26.3°C 79.1°F26.2°C 99% 0.7 mph SE1.1 kmh SE 2.2 mph3.5 kmh 29.96 in1014.6 mb 0.00 in0.0 mm 0.00 in/hr0.0 mm/hr 0.00 in0.0 mm
05:15 AM 79.3°F26.3°C 79.1°F26.2°C 99% 0.7 mph SE1.1 kmh SE 2.2 mph3.5 kmh 29.95 in1014.2 mb 0.00 in0.0 mm 0.00 in/hr0.0 mm/hr 0.00 in0.0 mm
05:20 AM 79.3°F26.3°C 79.1°F26.2°C 99% Calm Calm 2.2 mph3.5 kmh 29.96 in1014.6 mb 0.00 in0.0 mm 0.00 in/hr0.0 mm/hr 0.00 in0.0 mm
05:25 AM 79.2°F26.2°C 78.9°F26.1°C 99% 1.6 mph ESE2.6 kmh ESE 4.5 mph7.2 kmh 29.96 in1014.6 mb 0.00 in0.0 mm 0.00 in/hr0.0 mm/hr 0.00 in0.0 mm
05:30 AM 79.3°F26.3°C 79.1°F26.2°C 99% 2.2 mph SE3.5 kmh SE 4.5 mph7.2 kmh 29.96 in1014.6 mb 0.00 in0.0 mm 0.00 in/hr0.0 mm/hr 0.00 in0.0 mm
05:35 AM 79.3°F26.3°C 79.1°F26.2°C 99% 0.7 mph SE1.1 kmh SE 3.8 mph6.1 kmh 29.96 in1014.6 mb 0.00 in0.0 mm 0.00 in/hr0.0 mm/hr 0.00 in0.0 mm
05:40 AM 79.3°F26.3°C 79.1°F26.2°C 99% 0.7 mph SE1.1 kmh SE 3.8 mph6.1 kmh 29.96 in1014.6 mb 0.00 in0.0 mm 0.00 in/hr0.0 mm/hr 0.00 in0.0 mm
05:45 AM 79.5°F26.4°C 79.3°F26.3°C 99% 1.6 mph SE2.6 kmh SE 3.8 mph6.1 kmh 29.96 in1014.6 mb 0.00 in0.0 mm 0.00 in/hr0.0 mm/hr 0.00 in0.0 mm
05:50 AM 79.5°F26.4°C 79.3°F26.3°C 99% 1.6 mph SE2.6 kmh SE 3.8 mph6.1 kmh 29.96 in1014.6 mb 0.00 in0.0 mm 0.00 in/hr0.0 mm/hr 0.00 in0.0 mm
05:55 AM 79.5°F26.4°C 79.3°F26.3°C 99% 0.7 mph SE1.1 kmh SE 3.8 mph6.1 kmh 29.97 in1014.9 mb 0.00 in0.0 mm 0.00 in/hr0.0 mm/hr 0.00 in0.0 mm
06:00 AM 79.5°F26.4°C 79.3°F26.3°C 99% Calm Calm 3.8 mph6.1 kmh 29.97 in1014.9 mb 0.00 in0.0 mm 0.00 in/hr0.0 mm/hr 0.00 in0.0 mm
06:05 AM 79.5°F26.4°C 79.3°F26.3°C 99% Calm Calm 2.2 mph3.5 kmh 29.97 in1014.9 mb 0.00 in0.0 mm 0.00 in/hr0.0 mm/hr 0.00 in0.0 mm
06:10 AM 79.5°F26.4°C 79.3°F26.3°C 99% 3.1 mph SE5.0 kmh SE 6.0 mph9.7 kmh 29.97 in1014.9 mb 0.00 in0.0 mm 0.00 in/hr0.0 mm/hr 0.00 in0.0 mm
06:15 AM 79.5°F26.4°C 79.3°F26.3°C 99% 4.5 mph SE7.2 kmh SE 6.0 mph9.7 kmh 29.97 in1014.9 mb 0.00 in0.0 mm 0.00 in/hr0.0 mm/hr 0.00 in0.0 mm
06:20 AM 79.5°F26.4°C 79.3°F26.3°C 99% 3.1 mph SE5.0 kmh SE 6.0 mph9.7 kmh 29.98 in1015.2 mb 0.00 in0.0 mm 0.00 in/hr0.0 mm/hr 0.00 in0.0 mm
06:25 AM 79.5°F26.4°C 79.3°F26.3°C 99% 2.2 mph SE3.5 kmh SE 6.0 mph9.7 kmh 29.98 in1015.2 mb 0.00 in0.0 mm 0.00 in/hr0.0 mm/hr 0.00 in0.0 mm
06:30 AM 79.3°F26.3°C 79.1°F26.2°C 99% 2.2 mph SE3.5 kmh SE 4.5 mph7.2 kmh 29.98 in1015.2 mb 0.00 in0.0 mm 0.00 in/hr0.0 mm/hr 0.00 in0.0 mm
06:35 AM 79.3°F26.3°C 79.1°F26.2°C 99% 3.8 mph SE6.1 kmh SE 6.9 mph11.1 kmh 29.98 in1015.2 mb 0.00 in0.0 mm 0.00 in/hr0.0 mm/hr 0.00 in0.0 mm
06:40 AM 79.3°F26.3°C 79.1°F26.2°C 99% 3.1 mph SE5.0 kmh SE 6.9 mph11.1 kmh 29.98 in1015.2 mb 0.00 in0.0 mm 0.00 in/hr0.0 mm/hr 0.00 in0.0 mm
06:45 AM 79.3°F26.3°C 79.1°F26.2°C 99% 2.2 mph SE3.5 kmh SE 6.9 mph11.1 kmh 29.98 in1015.2 mb 0.00 in0.0 mm 0.00 in/hr0.0 mm/hr 0.00 in0.0 mm
06:50 AM 79.3°F26.3°C 79.1°F26.2°C 99% 3.8 mph SSE6.1 kmh SSE 6.0 mph9.7 kmh 29.99 in1015.6 mb 0.00 in0.0 mm 0.00 in/hr0.0 mm/hr 0.00 in0.0 mm
06:55 AM 79.2°F26.2°C 78.9°F26.1°C 99% 3.1 mph SSE5.0 kmh SSE 4.5 mph7.2 kmh 29.99 in1015.6 mb 0.00 in0.0 mm 0.00 in/hr0.0 mm/hr 0.00 in0.0 mm
07:00 AM 79.3°F26.3°C 79.1°F26.2°C 99% 2.2 mph SSE3.5 kmh SSE 4.5 mph7.2 kmh 29.99 in1015.6 mb 0.00 in0.0 mm 0.00 in/hr0.0 mm/hr 0.00 in0.0 mm
07:05 AM 79.3°F26.3°C 79.1°F26.2°C 99% 1.6 mph SE2.6 kmh SE 4.5 mph7.2 kmh 30.00 in1015.9 mb 0.00 in0.0 mm 0.00 in/hr0.0 mm/hr 0.00 in0.0 mm
07:10 AM 79.3°F26.3°C 79.1°F26.2°C 99% 2.2 mph SE3.5 kmh SE 4.5 mph7.2 kmh 30.00 in1015.9 mb 0.00 in0.0 mm 0.00 in/hr0.0 mm/hr 0.00 in0.0 mm
07:15 AM 79.3°F26.3°C 79.1°F26.2°C 99% 3.8 mph SSE6.1 kmh SSE 5.4 mph8.7 kmh 30.00 in1015.9 mb 0.00 in0.0 mm 0.00 in/hr0.0 mm/hr 0.00 in0.0 mm
07:20 AM 79.5°F26.4°C 79.3°F26.3°C 99% 2.2 mph SE3.5 kmh SE 5.4 mph8.7 kmh 30.00 in1015.9 mb 0.00 in0.0 mm 0.00 in/hr0.0 mm/hr 0.00 in0.0 mm
07:25 AM 79.7°F26.5°C 79.5°F26.4°C 99% 3.1 mph SE5.0 kmh SE 5.4 mph8.7 kmh 30.00 in1015.9 mb 0.00 in0.0 mm 0.00 in/hr0.0 mm/hr 0.00 in0.0 mm
07:30 AM 79.9°F26.6°C 79.6°F26.4°C 99% 3.1 mph SE5.0 kmh SE 5.4 mph8.7 kmh 30.01 in1016.3 mb 0.00 in0.0 mm 0.00 in/hr0.0 mm/hr 0.00 in0.0 mm
07:35 AM 80.1°F26.7°C 79.8°F26.6°C 99% 2.2 mph SE3.5 kmh SE 5.4 mph8.7 kmh 30.01 in1016.3 mb 0.00 in0.0 mm 0.00 in/hr0.0 mm/hr 0.00 in0.0 mm
07:40 AM 80.2°F26.8°C 80.0°F26.7°C 99% 4.5 mph SE7.2 kmh SE 6.0 mph9.7 kmh 30.01 in1016.3 mb 0.00 in0.0 mm 0.00 in/hr0.0 mm/hr 0.00 in0.0 mm
07:45 AM 80.4°F26.9°C 80.2°F26.8°C 99% 4.5 mph SSE7.2 kmh SSE 6.0 mph9.7 kmh 30.01 in1016.3 mb 0.00 in0.0 mm 0.00 in/hr0.0 mm/hr 0.00 in0.0 mm
07:50 AM 80.6°F27.0°C 80.4°F26.9°C 99% 3.8 mph SE6.1 kmh SE 6.9 mph11.1 kmh 30.02 in1016.6 mb 0.00 in0.0 mm 0.00 in/hr0.0 mm/hr 0.00 in0.0 mm
07:55 AM 81.0°F27.2°C 80.7°F27.1°C 99% 3.8 mph SE6.1 kmh SE 6.9 mph11.1 kmh 30.02 in1016.6 mb 0.00 in0.0 mm 0.00 in/hr0.0 mm/hr 0.00 in0.0 mm
08:00 AM 81.0°F27.2°C 80.7°F27.1°C 99% 4.5 mph SSE7.2 kmh SSE 6.9 mph11.1 kmh 30.02 in1016.6 mb 0.00 in0.0 mm 0.00 in/hr0.0 mm/hr 0.00 in0.0 mm
08:05 AM 81.3°F27.4°C 80.8°F27.1°C 98% 6.0 mph SSE9.7 kmh SSE 7.6 mph12.2 kmh 30.02 in1016.6 mb 0.00 in0.0 mm 0.00 in/hr0.0 mm/hr 0.00 in0.0 mm
08:10 AM 81.5°F27.5°C 81.3°F27.4°C 99% 6.0 mph S9.7 kmh S 7.6 mph12.2 kmh 30.02 in1016.6 mb 0.00 in0.0 mm 0.00 in/hr0.0 mm/hr 0.00 in0.0 mm
08:15 AM 81.9°F27.7°C 81.0°F27.2°C 97% 3.8 mph S6.1 kmh S 7.6 mph12.2 kmh 30.01 in1016.3 mb 0.00 in0.0 mm 0.00 in/hr0.0 mm/hr 0.00 in0.0 mm
08:20 AM 82.0°F27.8°C 81.2°F27.3°C 97% 3.8 mph SSE6.1 kmh SSE 6.9 mph11.1 kmh 30.01 in1016.3 mb 0.00 in0.0 mm 0.00 in/hr0.0 mm/hr 0.00 in0.0 mm
08:25 AM 82.4°F28.0°C 81.2°F27.3°C 96% 4.5 mph SSE7.2 kmh SSE 6.9 mph11.1 kmh 30.02 in1016.6 mb 0.00 in0.0 mm 0.00 in/hr0.0 mm/hr 0.00 in0.0 mm
08:30 AM 82.8°F28.2°C 81.6°F27.6°C 96% 3.8 mph S6.1 kmh S 6.9 mph11.1 kmh 30.02 in1016.6 mb 0.00 in0.0 mm 0.00 in/hr0.0 mm/hr 0.00 in0.0 mm
08:35 AM 82.9°F28.3°C 82.1°F27.8°C 97% 4.5 mph S7.2 kmh S 6.9 mph11.1 kmh 30.02 in1016.6 mb 0.00 in0.0 mm 0.00 in/hr0.0 mm/hr 0.00 in0.0 mm
08:40 AM 83.1°F28.4°C 81.6°F27.6°C 95% 3.1 mph S5.0 kmh S 7.6 mph12.2 kmh 30.03 in1016.9 mb 0.00 in0.0 mm 0.00 in/hr0.0 mm/hr 0.00 in0.0 mm
08:45 AM 83.5°F28.6°C 82.3°F27.9°C 96% 3.1 mph SSE5.0 kmh SSE 7.6 mph12.2 kmh 30.02 in1016.6 mb 0.00 in0.0 mm 0.00 in/hr0.0 mm/hr 0.00 in0.0 mm
08:50 AM 83.8°F28.8°C 82.3°F27.9°C 95% 3.8 mph SSE6.1 kmh SSE 6.9 mph11.1 kmh 30.02 in1016.6 mb 0.00 in0.0 mm 0.00 in/hr0.0 mm/hr 0.00 in0.0 mm
08:55 AM 83.8°F28.8°C 82.0°F27.8°C 94% 3.1 mph SE5.0 kmh SE 6.9 mph11.1 kmh 30.02 in1016.6 mb 0.00 in0.0 mm 0.00 in/hr0.0 mm/hr 0.00 in0.0 mm
09:00 AM 83.8°F28.8°C 82.0°F27.8°C 94% 3.1 mph SSE5.0 kmh SSE 6.0 mph9.7 kmh 30.02 in1016.6 mb 0.00 in0.0 mm 0.00 in/hr0.0 mm/hr 0.00 in0.0 mm
09:05 AM 83.8°F28.8°C 82.0°F27.8°C 94% 3.1 mph S5.0 kmh S 4.5 mph7.2 kmh 30.02 in1016.6 mb 0.00 in0.0 mm 0.00 in/hr0.0 mm/hr 0.00 in0.0 mm
09:10 AM 84.6°F29.2°C 82.7°F28.2°C 94% 3.1 mph SSE5.0 kmh SSE 4.5 mph7.2 kmh 30.02 in1016.6 mb 0.00 in0.0 mm 0.00 in/hr0.0 mm/hr 0.00 in0.0 mm
09:15 AM 84.9°F29.4°C 82.4°F28.0°C 92% 2.2 mph SSE3.5 kmh SSE 5.4 mph8.7 kmh 30.03 in1016.9 mb 0.00 in0.0 mm 0.00 in/hr0.0 mm/hr 0.00 in0.0 mm
09:20 AM 85.6°F29.8°C 83.1°F28.4°C 92% 3.8 mph SE6.1 kmh SE 6.0 mph9.7 kmh 30.02 in1016.6 mb 0.00 in0.0 mm 0.00 in/hr0.0 mm/hr 0.00 in0.0 mm
09:25 AM 86.0°F30.0°C 82.8°F28.2°C 90% 3.1 mph SE5.0 kmh SE 6.0 mph9.7 kmh 30.03 in1016.9 mb 0.00 in0.0 mm 0.00 in/hr0.0 mm/hr 0.00 in0.0 mm
09:30 AM 86.2°F30.1°C 82.3°F27.9°C 88% 2.2 mph SE3.5 kmh SE 5.4 mph8.7 kmh 30.03 in1016.9 mb 0.00 in0.0 mm 0.00 in/hr0.0 mm/hr 0.00 in0.0 mm
09:35 AM 86.9°F30.5°C 83.0°F28.3°C 88% 0.7 mph SE1.1 kmh SE 5.4 mph8.7 kmh 30.02 in1016.6 mb 0.00 in0.0 mm 0.00 in/hr0.0 mm/hr 0.00 in0.0 mm
09:40 AM 87.6°F30.9°C 83.0°F28.3°C 86% 1.6 mph SE2.6 kmh SE 6.0 mph9.7 kmh 30.03 in1016.9 mb 0.00 in0.0 mm 0.00 in/hr0.0 mm/hr 0.00 in0.0 mm
09:45 AM 88.2°F31.2°C 83.5°F28.6°C 86% 2.2 mph SE3.5 kmh SE 6.0 mph9.7 kmh 30.03 in1016.9 mb 0.00 in0.0 mm 0.00 in/hr0.0 mm/hr 0.00 in0.0 mm
09:50 AM 89.1°F31.7°C 84.1°F28.9°C 85% 0.7 mph E1.1 kmh E 3.1 mph5.0 kmh 30.03 in1016.9 mb 0.00 in0.0 mm 0.00 in/hr0.0 mm/hr 0.00 in0.0 mm
09:55 AM 90.0°F32.2°C 84.2°F29.0°C 83% Calm Calm 3.8 mph6.1 kmh 30.02 in1016.6 mb 0.00 in0.0 mm 0.00 in/hr0.0 mm/hr 0.00 in0.0 mm
10:00 AM 90.9°F32.7°C 84.3°F29.1°C 81% 0.7 mph E1.1 kmh E 3.8 mph6.1 kmh 30.02 in1016.6 mb 0.00 in0.0 mm 0.00 in/hr0.0 mm/hr 0.00 in0.0 mm
10:05 AM 91.6°F33.1°C 83.8°F28.8°C 78% 0.7 mph ENE1.1 kmh ENE 3.8 mph6.1 kmh 30.02 in1016.6 mb 0.00 in0.0 mm 0.00 in/hr0.0 mm/hr 0.00 in0.0 mm
10:10 AM 92.7°F33.7°C 84.1°F28.9°C 76% 1.6 mph N2.6 kmh N 4.5 mph7.2 kmh 30.01 in1016.3 mb 0.00 in0.0 mm 0.00 in/hr0.0 mm/hr 0.00 in0.0 mm
10:15 AM 93.4°F34.1°C 83.9°F28.8°C 74% Calm Calm 4.5 mph7.2 kmh 30.02 in1016.6 mb 0.00 in0.0 mm 0.00 in/hr0.0 mm/hr 0.00 in0.0 mm
10:20 AM 93.4°F34.1°C 83.9°F28.8°C 74% Calm Calm 3.1 mph5.0 kmh 30.02 in1016.6 mb 0.00 in0.0 mm 0.00 in/hr0.0 mm/hr 0.00 in0.0 mm
10:25 AM 94.5°F34.7°C 83.3°F28.5°C 70% 3.1 mph W5.0 kmh W 5.4 mph8.7 kmh 30.02 in1016.6 mb 0.00 in0.0 mm 0.00 in/hr0.0 mm/hr 0.00 in0.0 mm
10:30 AM 93.9°F34.4°C 83.2°F28.4°C 71% 2.2 mph WSW3.5 kmh WSW 5.4 mph8.7 kmh 30.03 in1016.9 mb 0.00 in0.0 mm 0.00 in/hr0.0 mm/hr 0.00 in0.0 mm
10:35 AM 93.7°F34.3°C 82.1°F27.8°C 69% 2.2 mph SW3.5 kmh SW 5.4 mph8.7 kmh 30.03 in1016.9 mb 0.00 in0.0 mm 0.00 in/hr0.0 mm/hr 0.00 in0.0 mm
10:40 AM 93.7°F34.3°C 82.1°F27.8°C 69% 2.2 mph SW3.5 kmh SW 5.4 mph8.7 kmh 30.03 in1016.9 mb 0.00 in0.0 mm 0.00 in/hr0.0 mm/hr 0.00 in0.0 mm
10:45 AM 93.0°F33.9°C 81.9°F27.7°C 70% 0.7 mph S1.1 kmh S 5.4 mph8.7 kmh 30.02 in1016.6 mb 0.00 in0.0 mm 0.00 in/hr0.0 mm/hr 0.00 in0.0 mm
10:50 AM 93.0°F33.9°C 82.3°F27.9°C 71% Calm Calm 4.5 mph7.2 kmh 30.02 in1016.6 mb 0.00 in0.0 mm 0.00 in/hr0.0 mm/hr 0.00 in0.0 mm
10:55 AM 93.7°F34.3°C 82.6°F28.1°C 70% Calm Calm 3.8 mph6.1 kmh 30.03 in1016.9 mb 0.00 in0.0 mm 0.00 in/hr0.0 mm/hr 0.00 in0.0 mm
11:00 AM 93.6°F34.2°C 81.9°F27.7°C 69% 2.2 mph ENE3.5 kmh ENE 6.9 mph11.1 kmh 30.02 in1016.6 mb 0.00 in0.0 mm 0.00 in/hr0.0 mm/hr 0.00 in0.0 mm
11:05 AM 93.4°F34.1°C 83.5°F28.6°C 73% 3.8 mph NE6.1 kmh NE 6.9 mph11.1 kmh 30.02 in1016.6 mb 0.00 in0.0 mm 0.00 in/hr0.0 mm/hr 0.00 in0.0 mm
11:10 AM 92.5°F33.6°C 83.5°F28.6°C 75% 5.4 mph N8.7 kmh N 7.6 mph12.2 kmh 30.02 in1016.6 mb 0.00 in0.0 mm 0.00 in/hr0.0 mm/hr 0.00 in0.0 mm
11:15 AM 91.9°F33.3°C 83.4°F28.6°C 76% 3.1 mph N5.0 kmh N 7.6 mph12.2 kmh 30.03 in1016.9 mb 0.00 in0.0 mm 0.00 in/hr0.0 mm/hr 0.00 in0.0 mm
11:20 AM 91.9°F33.3°C 83.4°F28.6°C 76% 3.1 mph NNE5.0 kmh NNE 6.9 mph11.1 kmh 30.02 in1016.6 mb 0.00 in0.0 mm 0.00 in/hr0.0 mm/hr 0.00 in0.0 mm
11:25 AM 92.5°F33.6°C 84.3°F29.1°C 77% 2.2 mph NNE3.5 kmh NNE 6.0 mph9.7 kmh 30.02 in1016.6 mb 0.00 in0.0 mm 0.00 in/hr0.0 mm/hr 0.00 in0.0 mm
11:30 AM 92.7°F33.7°C 84.1°F28.9°C 76% 3.8 mph NNE6.1 kmh NNE 7.6 mph12.2 kmh 30.02 in1016.6 mb 0.00 in0.0 mm 0.00 in/hr0.0 mm/hr 0.00 in0.0 mm
11:35 AM 92.5°F33.6°C 84.3°F29.1°C 77% 6.0 mph NNE9.7 kmh NNE 8.3 mph13.4 kmh 30.02 in1016.6 mb 0.00 in0.0 mm 0.00 in/hr0.0 mm/hr 0.00 in0.0 mm
11:40 AM 92.5°F33.6°C 84.3°F29.1°C 77% 4.5 mph NNE7.2 kmh NNE 8.3 mph13.4 kmh 30.02 in1016.6 mb 0.00 in0.0 mm 0.00 in/hr0.0 mm/hr 0.00 in0.0 mm
11:45 AM 93.2°F34.0°C 84.6°F29.2°C 76% 3.8 mph NNE6.1 kmh NNE 8.3 mph13.4 kmh 30.02 in1016.6 mb 0.00 in0.0 mm 0.00 in/hr0.0 mm/hr 0.00 in0.0 mm
11:50 AM 94.3°F34.6°C 84.8°F29.3°C 74% 3.8 mph NNE6.1 kmh NNE 6.9 mph11.1 kmh 30.02 in1016.6 mb 0.00 in0.0 mm 0.00 in/hr0.0 mm/hr 0.00 in0.0 mm
11:55 AM 95.0°F35.0°C 85.1°F29.5°C 73% 3.1 mph N5.0 kmh N 6.0 mph9.7 kmh 30.02 in1016.6 mb 0.00 in0.0 mm 0.00 in/hr0.0 mm/hr 0.00 in0.0 mm
12:00 PM 95.4°F35.2°C 85.4°F29.7°C 73% 3.8 mph NE6.1 kmh NE 6.0 mph9.7 kmh 30.01 in1016.3 mb 0.00 in0.0 mm 0.00 in/hr0.0 mm/hr 0.00 in0.0 mm
12:05 PM 95.7°F35.4°C 84.5°F29.2°C 70% 3.8 mph NE6.1 kmh NE 6.0 mph9.7 kmh 30.01 in1016.3 mb 0.00 in0.0 mm 0.00 in/hr0.0 mm/hr 0.00 in0.0 mm
12:10 PM 96.4°F35.8°C 86.0°F30.0°C 72% 3.1 mph NNE5.0 kmh NNE 8.3 mph13.4 kmh 30.01 in1016.3 mb 0.00 in0.0 mm 0.00 in/hr0.0 mm/hr 0.00 in0.0 mm
12:15 PM 96.8°F36.0°C 85.9°F29.9°C 71% 5.4 mph NE8.7 kmh NE 8.3 mph13.4 kmh 30.01 in1016.3 mb 0.00 in0.0 mm 0.00 in/hr0.0 mm/hr 0.00 in0.0 mm
12:20 PM 96.8°F36.0°C 85.9°F29.9°C 71% 5.4 mph E8.7 kmh E 8.3 mph13.4 kmh 30.01 in1016.3 mb 0.00 in0.0 mm 0.00 in/hr0.0 mm/hr 0.00 in0.0 mm
12:25 PM 97.5°F36.4°C 86.2°F30.1°C 70% 3.8 mph ENE6.1 kmh ENE 9.2 mph14.8 kmh 30.01 in1016.3 mb 0.00 in0.0 mm 0.00 in/hr0.0 mm/hr 0.00 in0.0 mm
12:30 PM 97.7°F36.5°C 85.9°F29.9°C 69% 4.5 mph NE7.2 kmh NE 9.2 mph14.8 kmh 30.01 in1016.3 mb 0.00 in0.0 mm 0.00 in/hr0.0 mm/hr 0.00 in0.0 mm
12:35 PM 97.5°F36.4°C 85.7°F29.8°C 69% 5.4 mph NE8.7 kmh NE 11.4 mph18.3 kmh 30.01 in1016.3 mb 0.00 in0.0 mm 0.00 in/hr0.0 mm/hr 0.00 in0.0 mm
12:40 PM 97.3°F36.3°C 85.1°F29.5°C 68% 5.4 mph NE8.7 kmh NE 11.4 mph18.3 kmh 30.01 in1016.3 mb 0.00 in0.0 mm 0.00 in/hr0.0 mm/hr 0.00 in0.0 mm
12:45 PM 97.5°F36.4°C 84.8°F29.3°C 67% 6.9 mph NE11.1 kmh NE 11.4 mph18.3 kmh 30.01 in1016.3 mb 0.00 in0.0 mm 0.00 in/hr0.0 mm/hr 0.00 in0.0 mm
12:50 PM 97.0°F36.1°C 83.8°F28.8°C 66% 6.0 mph NE9.7 kmh NE 12.1 mph19.5 kmh 30.01 in1016.3 mb 0.00 in0.0 mm 0.00 in/hr0.0 mm/hr 0.00 in0.0 mm
12:55 PM 96.4°F35.8°C 84.3°F29.1°C 68% 3.8 mph NNE6.1 kmh NNE 12.1 mph19.5 kmh 30.01 in1016.3 mb 0.00 in0.0 mm 0.00 in/hr0.0 mm/hr 0.00 in0.0 mm
01:00 PM 96.8°F36.0°C 84.1°F28.9°C 67% 4.5 mph N7.2 kmh N 9.2 mph14.8 kmh 30.00 in1015.9 mb 0.00 in0.0 mm 0.00 in/hr0.0 mm/hr 0.00 in0.0 mm
01:05 PM 97.2°F36.2°C 84.0°F28.9°C 66% 4.5 mph N7.2 kmh N 9.2 mph14.8 kmh 30.00 in1015.9 mb 0.00 in0.0 mm 0.00 in/hr0.0 mm/hr 0.00 in0.0 mm
01:10 PM 97.2°F36.2°C 84.5°F29.2°C 67% 6.9 mph NE11.1 kmh NE 12.1 mph19.5 kmh 30.00 in1015.9 mb 0.00 in0.0 mm 0.00 in/hr0.0 mm/hr 0.00 in0.0 mm
01:15 PM 97.5°F36.4°C 84.8°F29.3°C 67% 5.4 mph NE8.7 kmh NE 12.1 mph19.5 kmh 29.99 in1015.6 mb 0.00 in0.0 mm 0.00 in/hr0.0 mm/hr 0.00 in0.0 mm
01:20 PM 97.5°F36.4°C 84.8°F29.3°C 67% 5.4 mph ENE8.7 kmh ENE 11.4 mph18.3 kmh 29.99 in1015.6 mb 0.00 in0.0 mm 0.00 in/hr0.0 mm/hr 0.00 in0.0 mm
01:25 PM 97.2°F36.2°C 84.0°F28.9°C 66% 1.6 mph E2.6 kmh E 9.2 mph14.8 kmh 29.99 in1015.6 mb 0.00 in0.0 mm 0.00 in/hr0.0 mm/hr 0.00 in0.0 mm
01:30 PM 98.8°F37.1°C 84.6°F29.2°C 64% 3.8 mph ENE6.1 kmh ENE 9.2 mph14.8 kmh 29.99 in1015.6 mb 0.00 in0.0 mm 0.00 in/hr0.0 mm/hr 0.00 in0.0 mm
01:35 PM 99.0°F37.2°C 83.8°F28.8°C 62% 4.5 mph NE7.2 kmh NE 9.2 mph14.8 kmh 29.99 in1015.6 mb 0.00 in0.0 mm 0.00 in/hr0.0 mm/hr 0.00 in0.0 mm
01:40 PM 97.9°F36.6°C 82.2°F27.9°C 61% 7.6 mph N12.2 kmh N 11.4 mph18.3 kmh 29.98 in1015.2 mb 0.00 in0.0 mm 0.00 in/hr0.0 mm/hr 0.00 in0.0 mm
01:45 PM 95.5°F35.3°C 81.5°F27.5°C 64% 4.5 mph NNE7.2 kmh NNE 12.1 mph19.5 kmh 29.98 in1015.2 mb 0.00 in0.0 mm 0.00 in/hr0.0 mm/hr 0.00 in0.0 mm
01:50 PM 94.1°F34.5°C 82.0°F27.8°C 68% 6.0 mph NE9.7 kmh NE 12.1 mph19.5 kmh 29.98 in1015.2 mb 0.00 in0.0 mm 0.00 in/hr0.0 mm/hr 0.00 in0.0 mm
01:55 PM 93.4°F34.1°C 81.8°F27.7°C 69% 3.1 mph NE5.0 kmh NE 9.8 mph15.8 kmh 29.98 in1015.2 mb 0.00 in0.0 mm 0.00 in/hr0.0 mm/hr 0.00 in0.0 mm
02:00 PM 92.3°F33.5°C 81.2°F27.3°C 70% 3.8 mph NE6.1 kmh NE 9.8 mph15.8 kmh 29.98 in1015.2 mb 0.00 in0.0 mm 0.00 in/hr0.0 mm/hr 0.00 in0.0 mm
02:05 PM 91.6°F33.1°C 81.4°F27.4°C 72% 5.4 mph ENE8.7 kmh ENE 9.2 mph14.8 kmh 29.98 in1015.2 mb 0.00 in0.0 mm 0.00 in/hr0.0 mm/hr 0.00 in0.0 mm
02:10 PM 90.1°F32.3°C 80.8°F27.1°C 74% 3.8 mph E6.1 kmh E 8.3 mph13.4 kmh 29.98 in1015.2 mb 0.00 in0.0 mm 0.00 in/hr0.0 mm/hr 0.00 in0.0 mm
02:15 PM 88.9°F31.6°C 81.6°F27.6°C 79% 6.0 mph SE9.7 kmh SE 9.8 mph15.8 kmh 29.98 in1015.2 mb 0.00 in0.0 mm 0.00 in/hr0.0 mm/hr 0.00 in0.0 mm
02:20 PM 88.9°F31.6°C 81.6°F27.6°C 79% 6.0 mph SE9.7 kmh SE 9.8 mph15.8 kmh 29.98 in1015.2 mb 0.00 in0.0 mm 0.00 in/hr0.0 mm/hr 0.00 in0.0 mm
02:25 PM 84.6°F29.2°C 81.7°F27.6°C 91% 7.6 mph SE12.2 kmh SE 12.1 mph19.5 kmh 29.98 in1015.2 mb 0.11 in2.8 mm 1.32 in/hr33.5 mm/hr 0.11 in2.8 mm
02:30 PM 83.8°F28.8°C 82.0°F27.8°C 94% 3.8 mph E6.1 kmh E 12.1 mph19.5 kmh 29.98 in1015.2 mb 0.12 in3.0 mm 0.12 in/hr3.0 mm/hr 0.12 in3.0 mm
02:35 PM 84.0°F28.9°C 82.8°F28.2°C 96% 3.8 mph ENE6.1 kmh ENE 9.2 mph14.8 kmh 29.98 in1015.2 mb 0.13 in3.3 mm 0.12 in/hr3.0 mm/hr 0.13 in3.3 mm
02:40 PM 83.5°F28.6°C 79.3°F26.3°C 87% 6.9 mph NE11.1 kmh NE 13.0 mph20.9 kmh 29.99 in1015.6 mb 0.22 in5.6 mm 1.08 in/hr27.4 mm/hr 0.22 in5.6 mm
02:45 PM 82.4°F28.0°C 77.5°F25.3°C 85% 8.3 mph N13.4 kmh N 13.0 mph20.9 kmh 29.98 in1015.2 mb 0.27 in6.9 mm 0.60 in/hr15.2 mm/hr 0.27 in6.9 mm
02:50 PM 81.3°F27.4°C 77.1°F25.1°C 87% 4.5 mph N7.2 kmh N 15.2 mph24.5 kmh 29.98 in1015.2 mb 0.32 in8.1 mm 0.60 in/hr15.2 mm/hr 0.32 in8.1 mm
02:55 PM 81.1°F27.3°C 77.3°F25.2°C 88% 7.6 mph NW12.2 kmh NW 15.2 mph24.5 kmh 29.99 in1015.6 mb 0.37 in9.4 mm 0.60 in/hr15.2 mm/hr 0.37 in9.4 mm
03:00 PM 81.3°F27.4°C 77.5°F25.3°C 88% 7.6 mph NW12.2 kmh NW 10.7 mph17.2 kmh 29.98 in1015.2 mb 0.40 in10.2 mm 0.03 in/hr0.8 mm/hr 0.40 in10.2 mm
03:05 PM 82.8°F28.2°C 79.6°F26.4°C 90% 8.3 mph NNW13.4 kmh NNW 10.7 mph17.2 kmh 29.97 in1014.9 mb 0.41 in10.4 mm 0.12 in/hr3.0 mm/hr 0.41 in10.4 mm
03:10 PM 85.1°F29.5°C 79.8°F26.6°C 84% 8.3 mph N13.4 kmh N 10.7 mph17.2 kmh 29.96 in1014.6 mb 0.41 in10.4 mm 0.00 in/hr0.0 mm/hr 0.41 in10.4 mm
03:15 PM 86.9°F30.5°C 80.4°F26.9°C 81% 6.0 mph N9.7 kmh N 10.7 mph17.2 kmh 29.97 in1014.9 mb 0.41 in10.4 mm 0.00 in/hr0.0 mm/hr 0.41 in10.4 mm
03:20 PM 86.9°F30.5°C 80.4°F26.9°C 81% 6.0 mph NW9.7 kmh NW 9.8 mph15.8 kmh 29.97 in1014.9 mb 0.34 in8.6 mm 0.00 in/hr0.0 mm/hr 0.41 in10.4 mm
03:25 PM 91.6°F33.1°C 83.0°F28.3°C 76% 4.5 mph NW7.2 kmh NW 8.3 mph13.4 kmh 29.97 in1014.9 mb 0.31 in7.9 mm 0.00 in/hr0.0 mm/hr 0.41 in10.4 mm
03:30 PM 93.2°F34.0°C 83.8°F28.8°C 74% 2.2 mph NW3.5 kmh NW 8.3 mph13.4 kmh 29.96 in1014.6 mb 0.30 in7.6 mm 0.00 in/hr0.0 mm/hr 0.41 in10.4 mm
03:35 PM 95.2°F35.1°C 83.5°F28.6°C 69% 3.1 mph NW5.0 kmh NW 6.9 mph11.1 kmh 29.96 in1014.6 mb 0.28 in7.1 mm 0.00 in/hr0.0 mm/hr 0.41 in10.4 mm
03:40 PM 96.1°F35.6°C 81.5°F27.5°C 63% 3.1 mph NW5.0 kmh NW 6.0 mph9.7 kmh 29.96 in1014.6 mb 0.19 in4.8 mm 0.00 in/hr0.0 mm/hr 0.41 in10.4 mm
03:45 PM 96.4°F35.8°C 82.4°F28.0°C 64% 3.1 mph WNW5.0 kmh WNW 6.0 mph9.7 kmh 29.96 in1014.6 mb 0.14 in3.6 mm 0.00 in/hr0.0 mm/hr 0.41 in10.4 mm
03:50 PM 97.3°F36.3°C 84.2°F29.0°C 66% 2.2 mph NW3.5 kmh NW 6.0 mph9.7 kmh 29.96 in1014.6 mb 0.09 in2.3 mm 0.00 in/hr0.0 mm/hr 0.41 in10.4 mm
03:55 PM 98.1°F36.7°C 83.9°F28.8°C 64% 4.5 mph NW7.2 kmh NW 6.9 mph11.1 kmh 29.96 in1014.6 mb 0.02 in0.5 mm 0.00 in/hr0.0 mm/hr 0.41 in10.4 mm
04:00 PM 98.1°F36.7°C 84.4°F29.1°C 65% 3.8 mph WNW6.1 kmh WNW 6.9 mph11.1 kmh 29.96 in1014.6 mb 0.00 in0.0 mm 0.00 in/hr0.0 mm/hr 0.41 in10.4 mm
04:05 PM 97.7°F36.5°C 84.0°F28.9°C 65% 2.2 mph NW3.5 kmh NW 6.9 mph11.1 kmh 29.96 in1014.6 mb 0.00 in0.0 mm 0.00 in/hr0.0 mm/hr 0.41 in10.4 mm
04:10 PM 97.2°F36.2°C 82.6°F28.1°C 63% 5.4 mph NW8.7 kmh NW 9.2 mph14.8 kmh 29.96 in1014.6 mb 0.00 in0.0 mm 0.00 in/hr0.0 mm/hr 0.41 in10.4 mm
04:15 PM 97.3°F36.3°C 83.7°F28.7°C 65% 5.4 mph NW8.7 kmh NW 9.8 mph15.8 kmh 29.96 in1014.6 mb 0.00 in0.0 mm 0.00 in/hr0.0 mm/hr 0.41 in10.4 mm
04:20 PM 97.5°F36.4°C 83.4°F28.6°C 64% 6.0 mph NW9.7 kmh NW 9.8 mph15.8 kmh 29.96 in1014.6 mb 0.00 in0.0 mm 0.00 in/hr0.0 mm/hr 0.41 in10.4 mm
04:25 PM 97.5°F36.4°C 83.9°F28.8°C 65% 6.9 mph NW11.1 kmh NW 11.4 mph18.3 kmh 29.96 in1014.6 mb 0.00 in0.0 mm 0.00 in/hr0.0 mm/hr 0.41 in10.4 mm
04:30 PM 97.0°F36.1°C 83.4°F28.6°C 65% 7.6 mph WNW12.2 kmh WNW 11.4 mph18.3 kmh 29.96 in1014.6 mb 0.00 in0.0 mm 0.00 in/hr0.0 mm/hr 0.41 in10.4 mm
04:35 PM 97.0°F36.1°C 82.9°F28.3°C 64% 8.3 mph WNW13.4 kmh WNW 11.4 mph18.3 kmh 29.96 in1014.6 mb 0.00 in0.0 mm 0.00 in/hr0.0 mm/hr 0.41 in10.4 mm
04:40 PM 95.9°F35.5°C 82.3°F27.9°C 65% 5.4 mph NW8.7 kmh NW 11.4 mph18.3 kmh 29.96 in1014.6 mb 0.00 in0.0 mm 0.00 in/hr0.0 mm/hr 0.41 in10.4 mm
04:45 PM 95.4°F35.2°C 83.2°F28.4°C 68% 5.4 mph WNW8.7 kmh WNW 12.1 mph19.5 kmh 29.96 in1014.6 mb 0.00 in0.0 mm 0.00 in/hr0.0 mm/hr 0.41 in10.4 mm
04:50 PM 94.1°F34.5°C 82.0°F27.8°C 68% 5.4 mph WNW8.7 kmh WNW 12.1 mph19.5 kmh 29.95 in1014.2 mb 0.00 in0.0 mm 0.00 in/hr0.0 mm/hr 0.41 in10.4 mm
04:55 PM 94.5°F34.7°C 83.3°F28.5°C 70% 5.4 mph WNW8.7 kmh WNW 11.4 mph18.3 kmh 29.95 in1014.2 mb 0.00 in0.0 mm 0.00 in/hr0.0 mm/hr 0.41 in10.4 mm
05:00 PM 95.2°F35.1°C 83.0°F28.3°C 68% 6.0 mph WNW9.7 kmh WNW 13.0 mph20.9 kmh 29.95 in1014.2 mb 0.00 in0.0 mm 0.00 in/hr0.0 mm/hr 0.41 in10.4 mm
05:05 PM 95.5°F35.3°C 82.5°F28.1°C 66% 7.6 mph WNW12.2 kmh WNW 13.0 mph20.9 kmh 29.96 in1014.6 mb 0.00 in0.0 mm 0.00 in/hr0.0 mm/hr 0.41 in10.4 mm
05:10 PM 95.5°F35.3°C 82.5°F28.1°C 66% 6.9 mph NW11.1 kmh NW 13.6 mph21.9 kmh 29.96 in1014.6 mb 0.00 in0.0 mm 0.00 in/hr0.0 mm/hr 0.41 in10.4 mm
05:15 PM 95.0°F35.0°C 82.9°F28.3°C 68% 4.5 mph NW7.2 kmh NW 13.6 mph21.9 kmh 29.96 in1014.6 mb 0.00 in0.0 mm 0.00 in/hr0.0 mm/hr 0.41 in10.4 mm
05:20 PM 93.7°F34.3°C 82.1°F27.8°C 69% 9.2 mph NW14.8 kmh NW 13.6 mph21.9 kmh 29.96 in1014.6 mb 0.00 in0.0 mm 0.00 in/hr0.0 mm/hr 0.41 in10.4 mm
05:25 PM 93.6°F34.2°C 82.4°F28.0°C 70% 7.6 mph NNW12.2 kmh NNW 13.6 mph21.9 kmh 29.96 in1014.6 mb 0.00 in0.0 mm 0.00 in/hr0.0 mm/hr 0.41 in10.4 mm
05:30 PM 94.3°F34.6°C 83.1°F28.4°C 70% 8.3 mph NW13.4 kmh NW 15.9 mph25.6 kmh 29.96 in1014.6 mb 0.00 in0.0 mm 0.00 in/hr0.0 mm/hr 0.41 in10.4 mm
05:35 PM 93.7°F34.3°C 82.6°F28.1°C 70% 6.9 mph WNW11.1 kmh WNW 15.9 mph25.6 kmh 29.96 in1014.6 mb 0.00 in0.0 mm 0.00 in/hr0.0 mm/hr 0.41 in10.4 mm
05:40 PM 93.4°F34.1°C 82.7°F28.2°C 71% 6.0 mph NW9.7 kmh NW 15.9 mph25.6 kmh 29.96 in1014.6 mb 0.00 in0.0 mm 0.00 in/hr0.0 mm/hr 0.41 in10.4 mm
05:45 PM 92.8°F33.8°C 81.3°F27.4°C 69% 9.8 mph NW15.8 kmh NW 17.4 mph28.0 kmh 29.96 in1014.6 mb 0.00 in0.0 mm 0.00 in/hr0.0 mm/hr 0.41 in10.4 mm
05:50 PM 92.3°F33.5°C 82.5°F28.1°C 73% 6.0 mph NW9.7 kmh NW 17.4 mph28.0 kmh 29.96 in1014.6 mb 0.00 in0.0 mm 0.00 in/hr0.0 mm/hr 0.41 in10.4 mm
05:55 PM 92.5°F33.6°C 81.4°F27.4°C 70% 9.2 mph NW14.8 kmh NW 13.0 mph20.9 kmh 29.96 in1014.6 mb 0.00 in0.0 mm 0.00 in/hr0.0 mm/hr 0.41 in10.4 mm
06:00 PM 92.7°F33.7°C 81.5°F27.5°C 70% 7.6 mph WNW12.2 kmh WNW 13.0 mph20.9 kmh 29.96 in1014.6 mb 0.00 in0.0 mm 0.00 in/hr0.0 mm/hr 0.41 in10.4 mm
06:05 PM 92.8°F33.8°C 82.1°F27.8°C 71% 7.6 mph NW12.2 kmh NW 13.0 mph20.9 kmh 29.96 in1014.6 mb 0.00 in0.0 mm 0.00 in/hr0.0 mm/hr 0.41 in10.4 mm
06:10 PM 92.7°F33.7°C 82.4°F28.0°C 72% 3.8 mph NW6.1 kmh NW 13.0 mph20.9 kmh 29.96 in1014.6 mb 0.00 in0.0 mm 0.00 in/hr0.0 mm/hr 0.41 in10.4 mm
06:15 PM 92.7°F33.7°C 82.0°F27.8°C 71% 7.6 mph NW12.2 kmh NW 12.1 mph19.5 kmh 29.96 in1014.6 mb 0.00 in0.0 mm 0.00 in/hr0.0 mm/hr 0.41 in10.4 mm
06:20 PM 93.2°F34.0°C 82.0°F27.8°C 70% 9.8 mph NW15.8 kmh NW 13.0 mph20.9 kmh 29.96 in1014.6 mb 0.00 in0.0 mm 0.00 in/hr0.0 mm/hr 0.41 in10.4 mm
06:25 PM 92.3°F33.5°C 81.2°F27.3°C 70% 6.0 mph NNW9.7 kmh NNW 15.9 mph25.6 kmh 29.97 in1014.9 mb 0.00 in0.0 mm 0.00 in/hr0.0 mm/hr 0.41 in10.4 mm
06:30 PM 90.1°F32.3°C 78.2°F25.7°C 68% 12.1 mph NE19.5 kmh NE 15.9 mph25.6 kmh 29.98 in1015.2 mb 0.00 in0.0 mm 0.00 in/hr0.0 mm/hr 0.41 in10.4 mm
06:35 PM 86.2°F30.1°C 77.8°F25.4°C 76% 8.3 mph E13.4 kmh E 16.8 mph27.0 kmh 29.98 in1015.2 mb 0.00 in0.0 mm 0.00 in/hr0.0 mm/hr 0.41 in10.4 mm
06:40 PM 83.5°F28.6°C 77.1°F25.1°C 81% 13.0 mph ESE20.9 kmh ESE 22.8 mph36.7 kmh 29.98 in1015.2 mb 0.00 in0.0 mm 0.00 in/hr0.0 mm/hr 0.41 in10.4 mm
06:45 PM 82.0°F27.8°C 77.1°F25.1°C 85% 13.6 mph E21.9 kmh E 22.8 mph36.7 kmh 29.98 in1015.2 mb 0.00 in0.0 mm 0.00 in/hr0.0 mm/hr 0.41 in10.4 mm
06:50 PM 81.1°F27.3°C 77.3°F25.2°C 88% 9.2 mph E14.8 kmh E 22.8 mph36.7 kmh 29.98 in1015.2 mb 0.00 in0.0 mm 0.00 in/hr0.0 mm/hr 0.41 in10.4 mm
06:55 PM 80.8°F27.1°C 78.0°F25.6°C 91% 8.3 mph E13.4 kmh E 22.8 mph36.7 kmh 29.98 in1015.2 mb 0.00 in0.0 mm 0.00 in/hr0.0 mm/hr 0.41 in10.4 mm
07:00 PM 80.2°F26.8°C 78.1°F25.6°C 93% 9.2 mph E14.8 kmh E 14.5 mph23.3 kmh 29.99 in1015.6 mb 0.00 in0.0 mm 0.00 in/hr0.0 mm/hr 0.41 in10.4 mm
07:05 PM 80.1°F26.7°C 78.6°F25.9°C 95% 8.3 mph E13.4 kmh E 15.2 mph24.5 kmh 29.98 in1015.2 mb 0.00 in0.0 mm 0.00 in/hr0.0 mm/hr 0.41 in10.4 mm
07:10 PM 79.9°F26.6°C 78.7°F25.9°C 96% 7.6 mph E12.2 kmh E 15.2 mph24.5 kmh 29.99 in1015.6 mb 0.00 in0.0 mm 0.00 in/hr0.0 mm/hr 0.41 in10.4 mm
07:15 PM 79.0°F26.1°C 78.4°F25.8°C 98% 7.6 mph ESE12.2 kmh ESE 14.5 mph23.3 kmh 29.98 in1015.2 mb 0.00 in0.0 mm 0.00 in/hr0.0 mm/hr 0.41 in10.4 mm
07:20 PM 78.8°F26.0°C 78.6°F25.9°C 99% 4.5 mph SE7.2 kmh SE 14.5 mph23.3 kmh 29.98 in1015.2 mb 0.00 in0.0 mm 0.00 in/hr0.0 mm/hr 0.41 in10.4 mm
07:25 PM 78.6°F25.9°C 78.4°F25.8°C 99% 4.5 mph SE7.2 kmh SE 13.0 mph20.9 kmh 29.98 in1015.2 mb 0.00 in0.0 mm 0.00 in/hr0.0 mm/hr 0.41 in10.4 mm
07:30 PM 79.0°F26.1°C 78.7°F25.9°C 99% 4.5 mph E7.2 kmh E 9.8 mph15.8 kmh 29.98 in1015.2 mb 0.00 in0.0 mm 0.00 in/hr0.0 mm/hr 0.41 in10.4 mm
07:35 PM 79.3°F26.3°C 79.1°F26.2°C 99% 5.4 mph NE8.7 kmh NE 9.8 mph15.8 kmh 29.99 in1015.6 mb 0.00 in0.0 mm 0.00 in/hr0.0 mm/hr 0.41 in10.4 mm
07:40 PM 79.5°F26.4°C 79.3°F26.3°C 99% 3.8 mph NNE6.1 kmh NNE 8.3 mph13.4 kmh 29.99 in1015.6 mb 0.00 in0.0 mm 0.00 in/hr0.0 mm/hr 0.41 in10.4 mm
07:45 PM 79.7°F26.5°C 79.5°F26.4°C 99% 3.1 mph NNE5.0 kmh NNE 8.3 mph13.4 kmh 29.99 in1015.6 mb 0.00 in0.0 mm 0.00 in/hr0.0 mm/hr 0.41 in10.4 mm
07:50 PM 79.7°F26.5°C 79.5°F26.4°C 99% 5.4 mph NNE8.7 kmh NNE 7.6 mph12.2 kmh 30.00 in1015.9 mb 0.00 in0.0 mm 0.00 in/hr0.0 mm/hr 0.41 in10.4 mm
07:55 PM 79.7°F26.5°C 79.5°F26.4°C 99% 12.1 mph N19.5 kmh N 16.8 mph27.0 kmh 30.00 in1015.9 mb 0.00 in0.0 mm 0.00 in/hr0.0 mm/hr 0.41 in10.4 mm
08:00 PM 79.5°F26.4°C 79.3°F26.3°C 99% 7.6 mph NNE12.2 kmh NNE 18.3 mph29.5 kmh 29.99 in1015.6 mb 0.00 in0.0 mm 0.00 in/hr0.0 mm/hr 0.41 in10.4 mm
08:05 PM 79.2°F26.2°C 78.9°F26.1°C 99% 9.2 mph NNE14.8 kmh NNE 18.3 mph29.5 kmh 29.99 in1015.6 mb 0.00 in0.0 mm 0.00 in/hr0.0 mm/hr 0.41 in10.4 mm
08:10 PM 79.2°F26.2°C 78.9°F26.1°C 99% 6.0 mph NE9.7 kmh NE 13.0 mph20.9 kmh 30.00 in1015.9 mb 0.00 in0.0 mm 0.00 in/hr0.0 mm/hr 0.41 in10.4 mm
08:15 PM 79.2°F26.2°C 78.6°F25.9°C 98% 8.3 mph NE13.4 kmh NE 13.6 mph21.9 kmh 29.99 in1015.6 mb 0.00 in0.0 mm 0.00 in/hr0.0 mm/hr 0.41 in10.4 mm
08:20 PM 79.2°F26.2°C 78.3°F25.7°C 97% 6.0 mph NE9.7 kmh NE 13.6 mph21.9 kmh 29.99 in1015.6 mb 0.00 in0.0 mm 0.00 in/hr0.0 mm/hr 0.41 in10.4 mm
08:25 PM 79.3°F26.3°C 78.5°F25.8°C 97% 6.9 mph NE11.1 kmh NE 13.6 mph21.9 kmh 29.99 in1015.6 mb 0.00 in0.0 mm 0.00 in/hr0.0 mm/hr 0.41 in10.4 mm
08:30 PM 79.3°F26.3°C 78.5°F25.8°C 97% 4.5 mph NE7.2 kmh NE 11.4 mph18.3 kmh 30.00 in1015.9 mb 0.00 in0.0 mm 0.00 in/hr0.0 mm/hr 0.41 in10.4 mm
08:35 PM 79.2°F26.2°C 78.3°F25.7°C 97% 6.9 mph NE11.1 kmh NE 9.8 mph15.8 kmh 29.99 in1015.6 mb 0.00 in0.0 mm 0.00 in/hr0.0 mm/hr 0.41 in10.4 mm
08:40 PM 79.2°F26.2°C 78.3°F25.7°C 97% 7.6 mph NE12.2 kmh NE 10.7 mph17.2 kmh 29.99 in1015.6 mb 0.00 in0.0 mm 0.00 in/hr0.0 mm/hr 0.41 in10.4 mm
08:45 PM 79.2°F26.2°C 78.3°F25.7°C 97% 6.0 mph ENE9.7 kmh ENE 10.7 mph17.2 kmh 29.99 in1015.6 mb 0.00 in0.0 mm 0.00 in/hr0.0 mm/hr 0.41 in10.4 mm
08:50 PM 79.0°F26.1°C 77.8°F25.4°C 96% 4.5 mph ENE7.2 kmh ENE 10.7 mph17.2 kmh 30.00 in1015.9 mb 0.00 in0.0 mm 0.00 in/hr0.0 mm/hr 0.41 in10.4 mm
08:55 PM 79.2°F26.2°C 78.6°F25.9°C 98% 6.0 mph NE9.7 kmh NE 10.7 mph17.2 kmh 29.99 in1015.6 mb 0.00 in0.0 mm 0.00 in/hr0.0 mm/hr 0.41 in10.4 mm
09:00 PM 79.2°F26.2°C 78.9°F26.1°C 99% 6.0 mph ENE9.7 kmh ENE 10.7 mph17.2 kmh 30.00 in1015.9 mb 0.00 in0.0 mm 0.00 in/hr0.0 mm/hr 0.41 in10.4 mm
09:05 PM 79.2°F26.2°C 78.9°F26.1°C 99% 7.6 mph E12.2 kmh E 10.7 mph17.2 kmh 30.01 in1016.3 mb 0.00 in0.0 mm 0.00 in/hr0.0 mm/hr 0.41 in10.4 mm
09:10 PM 79.0°F26.1°C 78.7°F25.9°C 99% 7.6 mph E12.2 kmh E 13.6 mph21.9 kmh 30.01 in1016.3 mb 0.00 in0.0 mm 0.00 in/hr0.0 mm/hr 0.41 in10.4 mm
09:15 PM 78.8°F26.0°C 78.6°F25.9°C 99% 6.9 mph E11.1 kmh E 13.6 mph21.9 kmh 30.01 in1016.3 mb 0.00 in0.0 mm 0.00 in/hr0.0 mm/hr 0.41 in10.4 mm
09:20 PM 78.6°F25.9°C 78.4°F25.8°C 99% 7.6 mph E12.2 kmh E 12.1 mph19.5 kmh 30.01 in1016.3 mb 0.00 in0.0 mm 0.00 in/hr0.0 mm/hr 0.41 in10.4 mm
09:25 PM 78.4°F25.8°C 78.2°F25.7°C 99% 6.9 mph E11.1 kmh E 11.4 mph18.3 kmh 30.01 in1016.3 mb 0.00 in0.0 mm 0.00 in/hr0.0 mm/hr 0.41 in10.4 mm
09:30 PM 78.4°F25.8°C 78.2°F25.7°C 99% 6.9 mph E11.1 kmh E 11.4 mph18.3 kmh 30.01 in1016.3 mb 0.00 in0.0 mm 0.00 in/hr0.0 mm/hr 0.41 in10.4 mm
09:35 PM 78.3°F25.7°C 78.0°F25.6°C 99% 4.5 mph E7.2 kmh E 9.2 mph14.8 kmh 30.01 in1016.3 mb 0.00 in0.0 mm 0.00 in/hr0.0 mm/hr 0.41 in10.4 mm
09:40 PM 78.1°F25.6°C 77.8°F25.4°C 99% 5.4 mph E8.7 kmh E 9.2 mph14.8 kmh 30.01 in1016.3 mb 0.00 in0.0 mm 0.00 in/hr0.0 mm/hr 0.41 in10.4 mm
09:45 PM 78.1°F25.6°C 77.8°F25.4°C 99% 3.1 mph E5.0 kmh E 9.2 mph14.8 kmh 30.01 in1016.3 mb 0.00 in0.0 mm 0.00 in/hr0.0 mm/hr 0.41 in10.4 mm
09:50 PM 78.1°F25.6°C 77.8°F25.4°C 99% 6.0 mph E9.7 kmh E 7.6 mph12.2 kmh 30.01 in1016.3 mb 0.00 in0.0 mm 0.00 in/hr0.0 mm/hr 0.41 in10.4 mm
09:55 PM 78.1°F25.6°C 77.8°F25.4°C 99% 3.8 mph E6.1 kmh E 7.6 mph12.2 kmh 30.01 in1016.3 mb 0.00 in0.0 mm 0.00 in/hr0.0 mm/hr 0.41 in10.4 mm
10:00 PM 78.1°F25.6°C 77.8°F25.4°C 99% 2.2 mph E3.5 kmh E 7.6 mph12.2 kmh 30.01 in1016.3 mb 0.00 in0.0 mm 0.00 in/hr0.0 mm/hr 0.41 in10.4 mm
10:05 PM 78.1°F25.6°C 77.8°F25.4°C 99% 3.8 mph E6.1 kmh E 7.6 mph12.2 kmh 30.01 in1016.3 mb 0.00 in0.0 mm 0.00 in/hr0.0 mm/hr 0.41 in10.4 mm
10:10 PM 78.1°F25.6°C 77.8°F25.4°C 99% 3.8 mph E6.1 kmh E 6.9 mph11.1 kmh 30.01 in1016.3 mb 0.00 in0.0 mm 0.00 in/hr0.0 mm/hr 0.41 in10.4 mm
10:15 PM 78.1°F25.6°C 77.8°F25.4°C 99% 4.5 mph E7.2 kmh E 6.0 mph9.7 kmh 30.01 in1016.3 mb 0.00 in0.0 mm 0.00 in/hr0.0 mm/hr 0.41 in10.4 mm
10:20 PM 78.1°F25.6°C 77.8°F25.4°C 99% 4.5 mph E7.2 kmh E 6.9 mph11.1 kmh 30.00 in1015.9 mb 0.00 in0.0 mm 0.00 in/hr0.0 mm/hr 0.41 in10.4 mm
10:25 PM 78.1°F25.6°C 77.8°F25.4°C 99% 3.8 mph E6.1 kmh E 6.9 mph11.1 kmh 30.01 in1016.3 mb 0.00 in0.0 mm 0.00 in/hr0.0 mm/hr 0.41 in10.4 mm
10:30 PM 78.1°F25.6°C 77.8°F25.4°C 99% 2.2 mph E3.5 kmh E 6.9 mph11.1 kmh 30.01 in1016.3 mb 0.00 in0.0 mm 0.00 in/hr0.0 mm/hr 0.41 in10.4 mm
10:35 PM 77.9°F25.5°C 77.7°F25.4°C 99% 2.2 mph E3.5 kmh E 5.4 mph8.7 kmh 30.01 in1016.3 mb 0.00 in0.0 mm 0.00 in/hr0.0 mm/hr 0.41 in10.4 mm
10:40 PM 77.9°F25.5°C 77.7°F25.4°C 99% 3.1 mph ENE5.0 kmh ENE 4.5 mph7.2 kmh 30.01 in1016.3 mb 0.00 in0.0 mm 0.00 in/hr0.0 mm/hr 0.41 in10.4 mm
10:45 PM 77.9°F25.5°C 77.7°F25.4°C 99% 2.2 mph ENE3.5 kmh ENE 4.5 mph7.2 kmh 30.01 in1016.3 mb 0.00 in0.0 mm 0.00 in/hr0.0 mm/hr 0.41 in10.4 mm
10:50 PM 77.9°F25.5°C 77.7°F25.4°C 99% 3.8 mph E6.1 kmh E 4.5 mph7.2 kmh 30.01 in1016.3 mb 0.00 in0.0 mm 0.00 in/hr0.0 mm/hr 0.41 in10.4 mm
10:55 PM 77.9°F25.5°C 77.7°F25.4°C 99% 2.2 mph E3.5 kmh E 4.5 mph7.2 kmh 30.02 in1016.6 mb 0.00 in0.0 mm 0.00 in/hr0.0 mm/hr 0.41 in10.4 mm
11:00 PM 77.9°F25.5°C 77.7°F25.4°C 99% 2.2 mph ENE3.5 kmh ENE 4.5 mph7.2 kmh 30.02 in1016.6 mb 0.00 in0.0 mm 0.00 in/hr0.0 mm/hr 0.41 in10.4 mm
11:05 PM 77.9°F25.5°C 77.7°F25.4°C 99% 2.2 mph ENE3.5 kmh ENE 4.5 mph7.2 kmh 30.02 in1016.6 mb 0.00 in0.0 mm 0.00 in/hr0.0 mm/hr 0.41 in10.4 mm
11:10 PM 77.7°F25.4°C 77.5°F25.3°C 99% 2.2 mph E3.5 kmh E 4.5 mph7.2 kmh 30.02 in1016.6 mb 0.00 in0.0 mm 0.00 in/hr0.0 mm/hr 0.41 in10.4 mm
11:15 PM 77.7°F25.4°C 77.5°F25.3°C 99% 1.6 mph ENE2.6 kmh ENE 6.0 mph9.7 kmh 30.02 in1016.6 mb 0.00 in0.0 mm 0.00 in/hr0.0 mm/hr 0.41 in10.4 mm
11:20 PM 77.7°F25.4°C 77.5°F25.3°C 99% 1.6 mph NE2.6 kmh NE 6.0 mph9.7 kmh 30.02 in1016.6 mb 0.00 in0.0 mm 0.00 in/hr0.0 mm/hr 0.41 in10.4 mm
11:25 PM 77.7°F25.4°C 77.5°F25.3°C 99% 3.1 mph ENE5.0 kmh ENE 5.4 mph8.7 kmh 30.02 in1016.6 mb 0.00 in0.0 mm 0.00 in/hr0.0 mm/hr 0.41 in10.4 mm
11:30 PM 77.7°F25.4°C 77.5°F25.3°C 99% 4.5 mph E7.2 kmh E 6.9 mph11.1 kmh 30.02 in1016.6 mb 0.00 in0.0 mm 0.00 in/hr0.0 mm/hr 0.41 in10.4 mm
11:35 PM 77.7°F25.4°C 77.5°F25.3°C 99% 3.8 mph E6.1 kmh E 6.9 mph11.1 kmh 30.02 in1016.6 mb 0.00 in0.0 mm 0.00 in/hr0.0 mm/hr 0.41 in10.4 mm
11:40 PM 77.7°F25.4°C 77.5°F25.3°C 99% 5.4 mph E8.7 kmh E 8.3 mph13.4 kmh 30.02 in1016.6 mb 0.00 in0.0 mm 0.00 in/hr0.0 mm/hr 0.41 in10.4 mm
11:45 PM 77.7°F25.4°C 77.5°F25.3°C 99% 4.5 mph E7.2 kmh E 8.3 mph13.4 kmh 30.02 in1016.6 mb 0.00 in0.0 mm 0.00 in/hr0.0 mm/hr 0.41 in10.4 mm
11:50 PM 77.9°F25.5°C 77.7°F25.4°C 99% 4.5 mph E7.2 kmh E 8.3 mph13.4 kmh 30.02 in1016.6 mb 0.00 in0.0 mm 0.00 in/hr0.0 mm/hr 0.41 in10.4 mm
11:55 PM 77.9°F25.5°C 77.7°F25.4°C 99% 5.4 mph E8.7 kmh E 8.3 mph13.4 kmh 30.01 in1016.3 mb 0.00 in0.0 mm 0.00 in/hr0.0 mm/hr 0.41 in10.4 mm